sensor_id;sensor_type;location;lat;lon;timestamp;P1;durP1;ratioP1;P2;durP2;ratioP2
53267;SDS011;39156;51.176;6.738;2022-09-09T00:00:24;27.20;;;25.80;;
53267;SDS011;39156;51.176;6.738;2022-09-09T00:02:56;27.80;;;26.15;;
53267;SDS011;39156;51.176;6.738;2022-09-09T00:06:28;28.45;;;26.95;;
53267;SDS011;39156;51.176;6.738;2022-09-09T00:09:01;29.65;;;28.05;;
53267;SDS011;39156;51.176;6.738;2022-09-09T00:11:37;29.45;;;27.80;;
53267;SDS011;39156;51.176;6.738;2022-09-09T00:14:18;28.50;;;27.00;;
53267;SDS011;39156;51.176;6.738;2022-09-09T00:16:53;26.70;;;25.33;;
53267;SDS011;39156;51.176;6.738;2022-09-09T00:19:33;28.08;;;26.48;;
53267;SDS011;39156;51.176;6.738;2022-09-09T00:24:45;28.10;;;26.63;;
53267;SDS011;39156;51.176;6.738;2022-09-09T00:27:16;29.88;;;28.38;;
53267;SDS011;39156;51.176;6.738;2022-09-09T00:29:51;29.77;;;28.15;;
53267;SDS011;39156;51.176;6.738;2022-09-09T00:32:22;29.35;;;27.55;;
53267;SDS011;39156;51.176;6.738;2022-09-09T00:34:56;29.85;;;28.25;;
53267;SDS011;39156;51.176;6.738;2022-09-09T00:37:47;28.63;;;27.13;;
53267;SDS011;39156;51.176;6.738;2022-09-09T00:40:23;28.17;;;26.67;;
53267;SDS011;39156;51.176;6.738;2022-09-09T00:43:14;28.67;;;27.08;;
53267;SDS011;39156;51.176;6.738;2022-09-09T00:48:32;28.27;;;26.77;;
53267;SDS011;39156;51.176;6.738;2022-09-09T00:51:09;29.42;;;27.80;;
53267;SDS011;39156;51.176;6.738;2022-09-09T00:57:36;29.02;;;27.52;;
53267;SDS011;39156;51.176;6.738;2022-09-09T00:59:58;28.52;;;27.05;;
53267;SDS011;39156;51.176;6.738;2022-09-09T01:12:01;29.90;;;28.30;;
53267;SDS011;39156;51.176;6.738;2022-09-09T01:14:53;28.60;;;27.10;;
53267;SDS011;39156;51.176;6.738;2022-09-09T01:17:31;30.05;;;28.30;;
53267;SDS011;39156;51.176;6.738;2022-09-09T01:20:37;29.08;;;27.33;;
53267;SDS011;39156;51.176;6.738;2022-09-09T01:28:44;29.92;;;28.23;;
53267;SDS011;39156;51.176;6.738;2022-09-09T01:31:15;27.20;;;25.67;;
53267;SDS011;39156;51.176;6.738;2022-09-09T01:33:45;29.05;;;27.25;;
53267;SDS011;39156;51.176;6.738;2022-09-09T01:36:25;29.15;;;27.63;;
53267;SDS011;39156;51.176;6.738;2022-09-09T01:38:59;28.52;;;27.02;;
53267;SDS011;39156;51.176;6.738;2022-09-09T01:41:25;28.07;;;26.57;;
53267;SDS011;39156;51.176;6.738;2022-09-09T01:43:50;29.30;;;27.90;;
53267;SDS011;39156;51.176;6.738;2022-09-09T01:46:18;29.20;;;27.70;;
53267;SDS011;39156;51.176;6.738;2022-09-09T01:48:47;27.90;;;26.30;;
53267;SDS011;39156;51.176;6.738;2022-09-09T01:51:15;28.75;;;27.25;;
53267;SDS011;39156;51.176;6.738;2022-09-09T01:53:41;28.60;;;27.10;;
53267;SDS011;39156;51.176;6.738;2022-09-09T01:58:50;28.52;;;27.00;;
53267;SDS011;39156;51.176;6.738;2022-09-09T02:07:06;26.50;;;25.00;;
53267;SDS011;39156;51.176;6.738;2022-09-09T02:10:13;29.52;;;27.95;;
53267;SDS011;39156;51.176;6.738;2022-09-09T02:13:02;29.52;;;27.85;;
53267;SDS011;39156;51.176;6.738;2022-09-09T02:15:40;28.90;;;27.30;;
53267;SDS011;39156;51.176;6.738;2022-09-09T02:18:13;28.67;;;27.15;;
53267;SDS011;39156;51.176;6.738;2022-09-09T02:20:49;28.83;;;27.25;;
53267;SDS011;39156;51.176;6.738;2022-09-09T02:23:16;28.05;;;26.45;;
53267;SDS011;39156;51.176;6.738;2022-09-09T02:25:44;26.45;;;24.95;;
53267;SDS011;39156;51.176;6.738;2022-09-09T02:30:38;29.83;;;28.20;;
53267;SDS011;39156;51.176;6.738;2022-09-09T02:33:06;28.80;;;27.23;;
53267;SDS011;39156;51.176;6.738;2022-09-09T02:35:35;29.92;;;28.33;;
53267;SDS011;39156;51.176;6.738;2022-09-09T02:38:03;30.00;;;28.33;;
53267;SDS011;39156;51.176;6.738;2022-09-09T02:40:33;30.08;;;28.38;;
53267;SDS011;39156;51.176;6.738;2022-09-09T02:42:58;28.97;;;27.23;;
53267;SDS011;39156;51.176;6.738;2022-09-09T02:45:25;28.83;;;27.10;;
53267;SDS011;39156;51.176;6.738;2022-09-09T02:48:03;28.88;;;27.30;;
53267;SDS011;39156;51.176;6.738;2022-09-09T02:50:54;29.88;;;28.27;;
53267;SDS011;39156;51.176;6.738;2022-09-09T02:56:29;29.05;;;27.45;;
53267;SDS011;39156;51.176;6.738;2022-09-09T02:59:03;28.90;;;27.40;;
53267;SDS011;39156;51.176;6.738;2022-09-09T03:01:29;28.35;;;26.85;;
53267;SDS011;39156;51.176;6.738;2022-09-09T03:06:22;29.88;;;27.92;;
53267;SDS011;39156;51.176;6.738;2022-09-09T03:08:47;28.73;;;27.13;;
53267;SDS011;39156;51.176;6.738;2022-09-09T03:13:41;28.00;;;26.50;;
53267;SDS011;39156;51.176;6.738;2022-09-09T03:16:07;30.20;;;28.47;;
53267;SDS011;39156;51.176;6.738;2022-09-09T03:18:33;29.70;;;27.27;;
53267;SDS011;39156;51.176;6.738;2022-09-09T03:20:59;28.95;;;27.33;;
53267;SDS011;39156;51.176;6.738;2022-09-09T03:23:25;29.05;;;27.45;;
53267;SDS011;39156;51.176;6.738;2022-09-09T03:25:51;28.33;;;26.83;;
53267;SDS011;39156;51.176;6.738;2022-09-09T03:28:19;28.35;;;26.75;;
53267;SDS011;39156;51.176;6.738;2022-09-09T03:30:45;29.97;;;28.27;;
53267;SDS011;39156;51.176;6.738;2022-09-09T03:33:11;28.42;;;26.92;;
53267;SDS011;39156;51.176;6.738;2022-09-09T03:35:37;29.00;;;27.38;;
53267;SDS011;39156;51.176;6.738;2022-09-09T03:38:04;29.55;;;27.92;;
53267;SDS011;39156;51.176;6.738;2022-09-09T03:40:30;29.80;;;28.20;;
53267;SDS011;39156;51.176;6.738;2022-09-09T03:42:56;28.90;;;27.30;;
53267;SDS011;39156;51.176;6.738;2022-09-09T03:45:21;28.90;;;27.27;;
53267;SDS011;39156;51.176;6.738;2022-09-09T03:47:47;28.43;;;26.73;;
53267;SDS011;39156;51.176;6.738;2022-09-09T03:50:12;30.40;;;28.87;;
53267;SDS011;39156;51.176;6.738;2022-09-09T03:52:39;29.17;;;27.57;;
53267;SDS011;39156;51.176;6.738;2022-09-09T03:55:06;30.77;;;28.85;;
53267;SDS011;39156;51.176;6.738;2022-09-09T03:57:32;32.22;;;30.45;;
53267;SDS011;39156;51.176;6.738;2022-09-09T04:00:00;30.77;;;29.13;;
53267;SDS011;39156;51.176;6.738;2022-09-09T04:02:29;28.58;;;26.98;;
53267;SDS011;39156;51.176;6.738;2022-09-09T04:04:54;29.87;;;28.07;;
53267;SDS011;39156;51.176;6.738;2022-09-09T04:07:21;29.08;;;27.38;;
53267;SDS011;39156;51.176;6.738;2022-09-09T04:09:46;29.27;;;27.67;;
53267;SDS011;39156;51.176;6.738;2022-09-09T04:12:12;28.40;;;26.87;;
53267;SDS011;39156;51.176;6.738;2022-09-09T04:14:38;29.47;;;27.77;;
53267;SDS011;39156;51.176;6.738;2022-09-09T04:17:04;30.13;;;28.45;;
53267;SDS011;39156;51.176;6.738;2022-09-09T04:19:31;28.40;;;26.90;;
53267;SDS011;39156;51.176;6.738;2022-09-09T04:21:57;29.27;;;27.58;;
53267;SDS011;39156;51.176;6.738;2022-09-09T04:24:24;28.70;;;27.10;;
53267;SDS011;39156;51.176;6.738;2022-09-09T04:29:17;31.27;;;29.48;;
53267;SDS011;39156;51.176;6.738;2022-09-09T04:31:43;30.03;;;28.10;;
53267;SDS011;39156;51.176;6.738;2022-09-09T04:34:09;28.30;;;26.67;;
53267;SDS011;39156;51.176;6.738;2022-09-09T04:36:35;29.17;;;27.37;;
53267;SDS011;39156;51.176;6.738;2022-09-09T04:39:01;28.90;;;27.20;;
53267;SDS011;39156;51.176;6.738;2022-09-09T04:41:27;29.02;;;27.45;;
53267;SDS011;39156;51.176;6.738;2022-09-09T04:43:53;30.90;;;28.83;;
53267;SDS011;39156;51.176;6.738;2022-09-09T04:46:20;30.10;;;28.50;;
53267;SDS011;39156;51.176;6.738;2022-09-09T04:48:48;30.38;;;28.38;;
53267;SDS011;39156;51.176;6.738;2022-09-09T04:51:14;30.17;;;28.23;;
53267;SDS011;39156;51.176;6.738;2022-09-09T04:53:40;30.42;;;28.73;;
53267;SDS011;39156;51.176;6.738;2022-09-09T04:56:10;29.45;;;27.75;;
53267;SDS011;39156;51.176;6.738;2022-09-09T04:58:38;28.73;;;26.70;;
53267;SDS011;39156;51.176;6.738;2022-09-09T05:01:09;27.95;;;26.05;;
53267;SDS011;39156;51.176;6.738;2022-09-09T05:03:40;29.80;;;28.15;;
53267;SDS011;39156;51.176;6.738;2022-09-09T05:06:06;29.27;;;27.67;;
53267;SDS011;39156;51.176;6.738;2022-09-09T05:08:38;29.80;;;27.95;;
53267;SDS011;39156;51.176;6.738;2022-09-09T05:11:15;29.83;;;28.13;;
53267;SDS011;39156;51.176;6.738;2022-09-09T05:13:43;28.83;;;27.13;;
53267;SDS011;39156;51.176;6.738;2022-09-09T05:16:09;27.98;;;26.42;;
53267;SDS011;39156;51.176;6.738;2022-09-09T05:18:36;28.52;;;26.83;;
53267;SDS011;39156;51.176;6.738;2022-09-09T05:21:06;29.77;;;28.02;;
53267;SDS011;39156;51.176;6.738;2022-09-09T05:23:35;29.23;;;27.38;;
53267;SDS011;39156;51.176;6.738;2022-09-09T05:26:01;28.80;;;27.15;;
53267;SDS011;39156;51.176;6.738;2022-09-09T05:28:28;29.33;;;27.40;;
53267;SDS011;39156;51.176;6.738;2022-09-09T05:31:04;27.85;;;26.25;;
53267;SDS011;39156;51.176;6.738;2022-09-09T05:33:36;28.98;;;27.27;;
53267;SDS011;39156;51.176;6.738;2022-09-09T05:36:03;30.67;;;28.80;;
53267;SDS011;39156;51.176;6.738;2022-09-09T05:38:35;29.85;;;28.05;;
53267;SDS011;39156;51.176;6.738;2022-09-09T05:43:28;30.02;;;28.23;;
53267;SDS011;39156;51.176;6.738;2022-09-09T05:46:07;28.10;;;26.50;;
53267;SDS011;39156;51.176;6.738;2022-09-09T05:48:45;31.42;;;29.67;;
53267;SDS011;39156;51.176;6.738;2022-09-09T05:51:13;29.42;;;27.73;;
53267;SDS011;39156;51.176;6.738;2022-09-09T05:53:43;30.42;;;28.73;;
53267;SDS011;39156;51.176;6.738;2022-09-09T05:56:11;29.65;;;28.05;;
53267;SDS011;39156;51.176;6.738;2022-09-09T05:58:43;30.08;;;28.33;;
53267;SDS011;39156;51.176;6.738;2022-09-09T06:01:10;29.27;;;27.58;;
53267;SDS011;39156;51.176;6.738;2022-09-09T06:03:40;29.38;;;27.63;;
53267;SDS011;39156;51.176;6.738;2022-09-09T06:06:08;28.17;;;26.50;;
53267;SDS011;39156;51.176;6.738;2022-09-09T06:08:37;28.92;;;27.23;;
53267;SDS011;39156;51.176;6.738;2022-09-09T06:11:07;28.77;;;27.08;;
53267;SDS011;39156;51.176;6.738;2022-09-09T06:13:44;29.27;;;27.27;;
53267;SDS011;39156;51.176;6.738;2022-09-09T06:16:11;27.90;;;26.20;;
53267;SDS011;39156;51.176;6.738;2022-09-09T06:18:43;29.00;;;27.30;;
53267;SDS011;39156;51.176;6.738;2022-09-09T06:21:16;28.80;;;26.95;;
53267;SDS011;39156;51.176;6.738;2022-09-09T06:23:51;29.42;;;27.55;;
53267;SDS011;39156;51.176;6.738;2022-09-09T06:26:18;30.60;;;28.98;;
53267;SDS011;39156;51.176;6.738;2022-09-09T06:28:47;28.10;;;26.50;;
53267;SDS011;39156;51.176;6.738;2022-09-09T06:31:15;27.70;;;25.95;;
53267;SDS011;39156;51.176;6.738;2022-09-09T06:33:46;27.38;;;25.67;;
53267;SDS011;39156;51.176;6.738;2022-09-09T06:36:13;27.73;;;26.02;;
53267;SDS011;39156;51.176;6.738;2022-09-09T06:38:47;29.35;;;27.60;;
53267;SDS011;39156;51.176;6.738;2022-09-09T06:41:14;27.90;;;26.30;;
53267;SDS011;39156;51.176;6.738;2022-09-09T06:43:43;29.00;;;27.40;;
53267;SDS011;39156;51.176;6.738;2022-09-09T06:48:40;26.65;;;25.25;;
53267;SDS011;39156;51.176;6.738;2022-09-09T06:51:09;27.33;;;25.70;;
53267;SDS011;39156;51.176;6.738;2022-09-09T06:53:44;26.65;;;25.02;;
53267;SDS011;39156;51.176;6.738;2022-09-09T06:58:40;27.37;;;25.77;;
53267;SDS011;39156;51.176;6.738;2022-09-09T07:01:08;26.13;;;24.63;;
53267;SDS011;39156;51.176;6.738;2022-09-09T07:03:34;25.83;;;24.33;;
53267;SDS011;39156;51.176;6.738;2022-09-09T07:06:00;27.17;;;25.55;;
53267;SDS011;39156;51.176;6.738;2022-09-09T07:08:26;28.05;;;26.33;;
53267;SDS011;39156;51.176;6.738;2022-09-09T07:10:53;28.85;;;27.20;;
53267;SDS011;39156;51.176;6.738;2022-09-09T07:13:28;26.58;;;24.98;;
53267;SDS011;39156;51.176;6.738;2022-09-09T07:15:53;26.27;;;24.67;;
53267;SDS011;39156;51.176;6.738;2022-09-09T07:18:19;26.83;;;25.23;;
53267;SDS011;39156;51.176;6.738;2022-09-09T07:20:54;27.48;;;25.58;;
53267;SDS011;39156;51.176;6.738;2022-09-09T07:23:21;27.20;;;25.70;;
53267;SDS011;39156;51.176;6.738;2022-09-09T07:25:47;26.67;;;25.05;;
53267;SDS011;39156;51.176;6.738;2022-09-09T07:28:13;26.98;;;25.27;;
53267;SDS011;39156;51.176;6.738;2022-09-09T07:33:05;24.95;;;23.55;;
53267;SDS011;39156;51.176;6.738;2022-09-09T07:35:31;26.15;;;24.55;;
53267;SDS011;39156;51.176;6.738;2022-09-09T07:37:57;25.92;;;24.42;;
53267;SDS011;39156;51.176;6.738;2022-09-09T07:40:26;25.17;;;23.77;;
53267;SDS011;39156;51.176;6.738;2022-09-09T07:42:51;26.35;;;24.95;;
53267;SDS011;39156;51.176;6.738;2022-09-09T07:45:18;26.50;;;24.95;;
53267;SDS011;39156;51.176;6.738;2022-09-09T07:47:44;28.70;;;27.10;;
53267;SDS011;39156;51.176;6.738;2022-09-09T07:50:10;26.37;;;24.83;;
53267;SDS011;39156;51.176;6.738;2022-09-09T07:55:02;26.33;;;24.63;;
53267;SDS011;39156;51.176;6.738;2022-09-09T07:57:29;28.02;;;26.15;;
53267;SDS011;39156;51.176;6.738;2022-09-09T07:59:55;27.60;;;25.90;;
53267;SDS011;39156;51.176;6.738;2022-09-09T08:02:22;28.38;;;26.63;;
53267;SDS011;39156;51.176;6.738;2022-09-09T08:04:50;28.17;;;26.58;;
53267;SDS011;39156;51.176;6.738;2022-09-09T08:07:17;27.27;;;25.77;;
53267;SDS011;39156;51.176;6.738;2022-09-09T08:09:43;26.70;;;25.30;;
53267;SDS011;39156;51.176;6.738;2022-09-09T08:12:08;27.90;;;26.33;;
53267;SDS011;39156;51.176;6.738;2022-09-09T08:14:37;27.70;;;26.10;;
53267;SDS011;39156;51.176;6.738;2022-09-09T08:17:04;28.67;;;27.08;;
53267;SDS011;39156;51.176;6.738;2022-09-09T08:19:29;27.40;;;25.80;;
53267;SDS011;39156;51.176;6.738;2022-09-09T08:21:58;29.33;;;27.30;;
53267;SDS011;39156;51.176;6.738;2022-09-09T08:24:23;26.60;;;25.10;;
53267;SDS011;39156;51.176;6.738;2022-09-09T08:26:49;24.87;;;23.37;;
53267;SDS011;39156;51.176;6.738;2022-09-09T08:29:15;26.75;;;25.20;;
53267;SDS011;39156;51.176;6.738;2022-09-09T08:31:45;25.65;;;24.15;;
53267;SDS011;39156;51.176;6.738;2022-09-09T08:34:17;24.88;;;23.30;;
53267;SDS011;39156;51.176;6.738;2022-09-09T08:36:45;24.63;;;23.23;;
53267;SDS011;39156;51.176;6.738;2022-09-09T08:39:13;26.58;;;25.08;;
53267;SDS011;39156;51.176;6.738;2022-09-09T08:41:57;25.55;;;24.05;;
53267;SDS011;39156;51.176;6.738;2022-09-09T08:47:38;26.40;;;24.80;;
53267;SDS011;39156;51.176;6.738;2022-09-09T08:50:28;25.95;;;24.30;;
53267;SDS011;39156;51.176;6.738;2022-09-09T08:56:08;26.85;;;25.15;;
53267;SDS011;39156;51.176;6.738;2022-09-09T08:58:51;27.02;;;25.45;;
53267;SDS011;39156;51.176;6.738;2022-09-09T09:01:26;26.30;;;24.80;;
53267;SDS011;39156;51.176;6.738;2022-09-09T09:09:56;27.80;;;26.08;;
53267;SDS011;39156;51.176;6.738;2022-09-09T09:12:41;27.00;;;25.40;;
53267;SDS011;39156;51.176;6.738;2022-09-09T09:15:31;27.55;;;25.95;;
53267;SDS011;39156;51.176;6.738;2022-09-09T09:18:01;28.52;;;26.90;;
53267;SDS011;39156;51.176;6.738;2022-09-09T09:20:32;27.88;;;26.17;;
53267;SDS011;39156;51.176;6.738;2022-09-09T09:23:52;28.48;;;26.85;;
53267;SDS011;39156;51.176;6.738;2022-09-09T09:26:41;27.13;;;25.63;;
53267;SDS011;39156;51.176;6.738;2022-09-09T09:29:13;28.88;;;27.08;;
53267;SDS011;39156;51.176;6.738;2022-09-09T09:31:50;28.67;;;26.98;;
53267;SDS011;39156;51.176;6.738;2022-09-09T09:34:21;26.60;;;25.10;;
53267;SDS011;39156;51.176;6.738;2022-09-09T09:36:56;28.23;;;26.50;;
53267;SDS011;39156;51.176;6.738;2022-09-09T09:39:24;29.50;;;27.90;;
53267;SDS011;39156;51.176;6.738;2022-09-09T09:41:52;25.73;;;23.92;;
53267;SDS011;39156;51.176;6.738;2022-09-09T09:44:26;25.73;;;24.20;;
53267;SDS011;39156;51.176;6.738;2022-09-09T09:47:07;26.17;;;24.77;;
53267;SDS011;39156;51.176;6.738;2022-09-09T09:49:39;24.17;;;22.90;;
53267;SDS011;39156;51.176;6.738;2022-09-09T09:52:24;25.30;;;23.50;;
53267;SDS011;39156;51.176;6.738;2022-09-09T09:54:53;25.17;;;23.27;;
53267;SDS011;39156;51.176;6.738;2022-09-09T09:57:26;24.38;;;22.88;;
53267;SDS011;39156;51.176;6.738;2022-09-09T10:00:04;24.17;;;22.88;;
53267;SDS011;39156;51.176;6.738;2022-09-09T10:02:40;25.33;;;23.95;;
53267;SDS011;39156;51.176;6.738;2022-09-09T10:05:19;24.42;;;23.13;;
53267;SDS011;39156;51.176;6.738;2022-09-09T10:08:00;24.75;;;23.45;;
53267;SDS011;39156;51.176;6.738;2022-09-09T10:10:32;25.13;;;23.83;;
53267;SDS011;39156;51.176;6.738;2022-09-09T10:13:24;26.08;;;24.63;;
53267;SDS011;39156;51.176;6.738;2022-09-09T10:19:35;26.10;;;24.70;;
53267;SDS011;39156;51.176;6.738;2022-09-09T10:25:05;25.35;;;23.95;;
53267;SDS011;39156;51.176;6.738;2022-09-09T10:27:50;26.60;;;25.08;;
53267;SDS011;39156;51.176;6.738;2022-09-09T10:33:37;26.80;;;25.05;;
53267;SDS011;39156;51.176;6.738;2022-09-09T10:36:21;26.77;;;25.27;;
53267;SDS011;39156;51.176;6.738;2022-09-09T10:42:05;26.02;;;24.55;;
53267;SDS011;39156;51.176;6.738;2022-09-09T10:47:47;27.40;;;25.98;;
53267;SDS011;39156;51.176;6.738;2022-09-09T10:53:24;27.20;;;25.73;;
53267;SDS011;39156;51.176;6.738;2022-09-09T10:56:03;26.25;;;24.88;;
53267;SDS011;39156;51.176;6.738;2022-09-09T10:58:39;26.30;;;24.90;;
53267;SDS011;39156;51.176;6.738;2022-09-09T11:01:19;26.92;;;25.50;;
53267;SDS011;39156;51.176;6.738;2022-09-09T11:03:57;26.17;;;24.77;;
53267;SDS011;39156;51.176;6.738;2022-09-09T11:06:32;27.35;;;25.75;;
53267;SDS011;39156;51.176;6.738;2022-09-09T11:09:04;27.85;;;26.25;;
53267;SDS011;39156;51.176;6.738;2022-09-09T11:11:34;27.95;;;26.30;;
53267;SDS011;39156;51.176;6.738;2022-09-09T11:16:59;26.20;;;24.80;;
53267;SDS011;39156;51.176;6.738;2022-09-09T11:19:36;26.38;;;25.00;;
53267;SDS011;39156;51.176;6.738;2022-09-09T11:22:16;26.52;;;25.02;;
53267;SDS011;39156;51.176;6.738;2022-09-09T11:25:05;27.10;;;25.60;;
53267;SDS011;39156;51.176;6.738;2022-09-09T11:28:04;25.80;;;24.35;;
53267;SDS011;39156;51.176;6.738;2022-09-09T11:42:20;26.27;;;24.77;;
53267;SDS011;39156;51.176;6.738;2022-09-09T11:44:48;25.42;;;24.08;;
53267;SDS011;39156;51.176;6.738;2022-09-09T11:47:16;26.60;;;25.17;;
53267;SDS011;39156;51.176;6.738;2022-09-09T11:49:55;27.20;;;25.75;;
53267;SDS011;39156;51.176;6.738;2022-09-09T11:52:42;27.02;;;25.63;;
53267;SDS011;39156;51.176;6.738;2022-09-09T11:55:26;27.77;;;26.17;;
53267;SDS011;39156;51.176;6.738;2022-09-09T11:58:16;27.52;;;26.13;;
53267;SDS011;39156;51.176;6.738;2022-09-09T12:00:44;27.90;;;26.48;;
53267;SDS011;39156;51.176;6.738;2022-09-09T12:03:33;26.77;;;25.17;;
53267;SDS011;39156;51.176;6.738;2022-09-09T12:08:58;27.33;;;25.73;;
53267;SDS011;39156;51.176;6.738;2022-09-09T12:12:06;26.92;;;25.33;;
53267;SDS011;39156;51.176;6.738;2022-09-09T12:17:48;28.15;;;26.45;;
53267;SDS011;39156;51.176;6.738;2022-09-09T12:34:16;25.58;;;24.17;;
53267;SDS011;39156;51.176;6.738;2022-09-09T12:39:59;26.60;;;25.08;;
53267;SDS011;39156;51.176;6.738;2022-09-09T12:42:46;26.33;;;24.83;;
53267;SDS011;39156;51.176;6.738;2022-09-09T12:45:15;26.38;;;24.95;;
53267;SDS011;39156;51.176;6.738;2022-09-09T12:50:29;27.02;;;25.42;;
53267;SDS011;39156;51.176;6.738;2022-09-09T12:53:03;28.30;;;26.80;;
53267;SDS011;39156;51.176;6.738;2022-09-09T12:55:48;26.58;;;24.98;;
53267;SDS011;39156;51.176;6.738;2022-09-09T12:58:27;27.42;;;25.92;;
53267;SDS011;39156;51.176;6.738;2022-09-09T13:00:58;27.13;;;25.60;;
53267;SDS011;39156;51.176;6.738;2022-09-09T13:03:26;27.60;;;26.05;;
53267;SDS011;39156;51.176;6.738;2022-09-09T13:05:52;26.92;;;25.52;;
53267;SDS011;39156;51.176;6.738;2022-09-09T13:08:23;27.48;;;25.98;;
